createdAt,value
2023-08-09T00:05:41.613Z,86.0
2023-08-09T00:25:41.666Z,86.9
2023-08-09T00:45:41.557Z,86.1
2023-08-09T01:05:41.527Z,86.0
2023-08-09T01:25:41.508Z,85.6
2023-08-09T01:45:41.493Z,85.4
2023-08-09T02:05:41.466Z,86.5
2023-08-09T02:25:41.439Z,87.5
2023-08-09T02:45:41.440Z,88.1
2023-08-09T03:05:41.386Z,87.9
2023-08-09T03:25:41.373Z,86.9
2023-08-09T03:45:41.353Z,87.2
2023-08-09T04:05:41.327Z,87.4
2023-08-09T04:25:41.318Z,86.6
2023-08-09T04:45:41.283Z,87.3
2023-08-09T05:05:41.272Z,86.9
2023-08-09T05:25:41.288Z,86.9
2023-08-09T05:45:41.213Z,87.1
2023-08-09T06:05:41.199Z,85.3
2023-08-09T06:25:41.166Z,85.5
2023-08-09T06:45:41.130Z,85.6
2023-08-09T07:05:41.123Z,86.7
2023-08-09T07:25:41.105Z,84.4
2023-08-09T07:45:41.076Z,83.1
2023-08-09T08:05:41.446Z,83.8
2023-08-09T08:25:41.082Z,78.5
2023-08-09T08:45:41.204Z,79.1
2023-08-09T09:05:41.089Z,76.7
2023-08-09T09:25:41.043Z,76.0
2023-08-09T09:45:41.263Z,76.4
2023-08-09T10:25:40.992Z,86.7
2023-08-09T10:45:41.137Z,86.8
2023-08-09T11:05:40.874Z,87.7
2023-08-09T11:25:40.905Z,78.5
2023-08-09T11:45:40.868Z,78.6
2023-08-09T12:05:40.833Z,81.3
2023-08-09T12:25:40.767Z,83.1
2023-08-09T12:45:40.912Z,81.9
2023-08-09T13:05:40.810Z,81.5
2023-08-09T13:25:40.752Z,78.4
2023-08-09T13:45:40.706Z,75.9
2023-08-09T14:05:40.624Z,75.7
2023-08-09T14:25:40.700Z,77.2
2023-08-09T14:45:40.738Z,76.1
2023-08-09T15:05:40.758Z,75.6
2023-08-09T15:25:40.581Z,73.4
2023-08-09T16:05:40.719Z,72.2
2023-08-09T16:25:40.549Z,69.3
2023-08-09T16:45:40.536Z,71.2
2023-08-09T17:25:40.545Z,70.6
2023-08-09T17:45:40.504Z,69.3
2023-08-09T18:05:40.505Z,69.1
2023-08-09T18:25:40.346Z,70.6
2023-08-09T18:45:40.297Z,69.3
2023-08-09T19:05:40.300Z,73.4
2023-08-09T19:25:40.381Z,73.1
2023-08-09T19:45:40.238Z,74.5
2023-08-09T20:05:40.357Z,73.8
2023-08-09T20:25:40.254Z,74.1
2023-08-09T20:45:40.245Z,73.4
2023-08-09T21:05:40.128Z,72.1
2023-08-09T21:25:40.111Z,73.5
2023-08-09T21:45:40.210Z,75.5
2023-08-09T22:05:40.141Z,77.2
2023-08-09T22:25:40.183Z,76.4
2023-08-09T22:45:40.052Z,80.0
2023-08-09T23:05:40.095Z,80.3
2023-08-09T23:25:40.085Z,81.4
2023-08-09T23:45:39.951Z,82.8
